createdAt,value
2022-08-12T00:02:03.224Z,3.53
2022-08-12T00:04:51.756Z,4.20
2022-08-12T00:07:38.008Z,3.60
2022-08-12T00:10:24.318Z,4.07
2022-08-12T00:13:10.349Z,3.50
2022-08-12T00:15:57.409Z,3.70
2022-08-12T00:18:44.392Z,3.70
2022-08-12T00:21:30.901Z,3.70
2022-08-12T00:24:17.524Z,4.00
2022-08-12T00:27:03.420Z,3.97
2022-08-12T00:29:49.368Z,3.70
2022-08-12T00:32:36.721Z,4.27
2022-08-12T00:35:29.197Z,4.07
2022-08-12T00:38:23.526Z,4.77
2022-08-12T00:41:09.375Z,3.90
2022-08-12T00:43:38.280Z,4.20
2022-08-12T00:46:24.928Z,3.83
2022-08-12T00:48:53.872Z,3.97
2022-08-12T00:51:23.472Z,4.23
2022-08-12T00:53:51.716Z,3.67
2022-08-12T00:56:22.684Z,4.00
2022-08-12T00:58:52.485Z,3.87
2022-08-12T01:01:21.987Z,4.13
2022-08-12T01:04:09.139Z,4.43
2022-08-12T01:06:56.252Z,3.67
2022-08-12T01:09:42.269Z,4.13
2022-08-12T01:12:11.075Z,4.07
2022-08-12T01:14:39.584Z,3.90
2022-08-12T01:17:07.900Z,3.87
2022-08-12T01:19:36.157Z,4.00
2022-08-12T01:22:18.760Z,3.67
2022-08-12T01:24:59.725Z,3.90
2022-08-12T01:27:29.143Z,3.77
2022-08-12T01:29:58.629Z,3.90
2022-08-12T01:32:28.577Z,3.70
2022-08-12T01:34:59.684Z,4.10
2022-08-12T01:37:28.044Z,4.23
2022-08-12T01:40:34.310Z,3.63
2022-08-12T01:42:47.929Z,3.80
2022-08-12T01:45:17.471Z,3.60
2022-08-12T01:48:07.004Z,3.67
2022-08-12T01:50:38.076Z,3.80
2022-08-12T01:53:09.078Z,3.80
2022-08-12T01:55:38.252Z,3.70
2022-08-12T01:58:18.048Z,3.60
2022-08-12T02:00:55.174Z,3.67
2022-08-12T02:03:50.765Z,3.40
2022-08-12T02:06:39.334Z,3.50
2022-08-12T02:09:27.284Z,3.77
2022-08-12T02:12:05.994Z,3.60
2022-08-12T02:14:47.659Z,3.70
2022-08-12T02:17:55.247Z,3.37
2022-08-12T02:20:21.767Z,3.37
2022-08-12T02:22:51.271Z,3.50
2022-08-12T02:25:22.896Z,3.70
2022-08-12T02:27:52.977Z,3.57
2022-08-12T02:30:23.509Z,3.57
2022-08-12T02:32:53.362Z,3.50
2022-08-12T02:35:22.945Z,3.50
2022-08-12T02:37:52.356Z,3.50
2022-08-12T02:40:21.825Z,3.50
2022-08-12T02:42:54.863Z,3.67
2022-08-12T02:45:27.531Z,3.50
2022-08-12T02:47:59.807Z,3.50
2022-08-12T02:50:30.956Z,3.70
2022-08-12T02:52:59.997Z,3.23
2022-08-12T02:55:34.262Z,4.03
2022-08-12T02:58:06.914Z,3.43
2022-08-12T03:00:40.073Z,3.47
2022-08-12T03:03:09.972Z,3.67
2022-08-12T03:05:44.574Z,3.47
2022-08-12T03:08:23.441Z,3.43
2022-08-12T03:11:01.852Z,3.23
2022-08-12T03:13:30.352Z,3.63
2022-08-12T03:16:00.088Z,3.43
2022-08-12T03:18:30.986Z,3.47
2022-08-12T03:20:59.768Z,3.40
2022-08-12T03:23:30.620Z,3.40
2022-08-12T03:26:01.544Z,3.70
2022-08-12T03:28:48.525Z,3.33
2022-08-12T03:31:19.133Z,3.20
2022-08-12T03:34:01.976Z,3.53
2022-08-12T03:36:31.781Z,3.50
2022-08-12T03:39:35.543Z,3.30
2022-08-12T03:42:09.517Z,3.20
2022-08-12T03:44:57.450Z,2.87
2022-08-12T03:47:46.122Z,3.53
2022-08-12T03:50:32.040Z,3.20
2022-08-12T03:53:17.998Z,3.60
2022-08-12T03:56:03.972Z,3.80
2022-08-12T03:58:49.765Z,3.63
2022-08-12T04:01:18.264Z,2.93
2022-08-12T04:03:54.096Z,3.63
2022-08-12T04:06:35.229Z,3.07
2022-08-12T04:09:15.989Z,3.33
2022-08-12T04:12:03.198Z,3.03
2022-08-12T04:14:31.603Z,3.30
2022-08-12T04:17:00.101Z,3.40
2022-08-12T04:19:30.220Z,3.27
2022-08-12T04:22:02.125Z,3.23
2022-08-12T04:24:31.855Z,3.43
2022-08-12T04:27:00.159Z,3.17
2022-08-12T04:30:21.195Z,3.73
2022-08-12T04:32:16.711Z,3.03
2022-08-12T04:34:46.535Z,3.53
2022-08-12T04:37:16.002Z,3.40
2022-08-12T04:39:45.387Z,3.60
2022-08-12T04:42:13.778Z,3.40
2022-08-12T04:44:43.284Z,3.13
2022-08-12T04:47:13.135Z,3.23
2022-08-12T04:49:41.789Z,3.30
2022-08-12T04:52:11.601Z,3.30
2022-08-12T04:54:39.862Z,3.60
2022-08-12T04:57:09.734Z,2.87
2022-08-12T04:59:47.232Z,2.87
2022-08-12T05:02:21.399Z,3.10
2022-08-12T05:04:50.846Z,2.93
2022-08-12T05:07:20.506Z,3.10
2022-08-12T05:10:00.611Z,3.33
2022-08-12T05:12:34.521Z,3.20
2022-08-12T05:15:02.946Z,3.10
2022-08-12T05:17:48.368Z,3.30
2022-08-12T05:20:16.687Z,3.40
2022-08-12T05:22:46.293Z,3.30
2022-08-12T05:25:15.789Z,3.50
2022-08-12T05:27:58.845Z,3.10
2022-08-12T05:30:27.898Z,3.53
2022-08-12T05:33:00.038Z,3.27
2022-08-12T05:35:29.342Z,3.20
2022-08-12T05:38:12.823Z,2.90
2022-08-12T05:40:41.161Z,3.17
2022-08-12T05:43:09.787Z,2.87
2022-08-12T05:45:42.878Z,2.80
2022-08-12T05:48:13.242Z,2.70
2022-08-12T05:50:41.487Z,3.20
2022-08-12T05:53:11.153Z,2.63
2022-08-12T05:55:40.116Z,2.70
2022-08-12T05:58:08.837Z,3.43
2022-08-12T06:00:37.917Z,3.03
2022-08-12T06:03:06.772Z,3.27
2022-08-12T06:05:54.583Z,3.00
2022-08-12T06:08:25.293Z,2.53
2022-08-12T06:10:53.755Z,3.20
2022-08-12T06:13:25.636Z,3.20
2022-08-12T06:15:57.221Z,2.93
2022-08-12T06:18:29.607Z,3.42
2022-08-12T06:21:01.493Z,2.78
2022-08-12T06:23:31.436Z,2.72
2022-08-12T06:26:00.424Z,3.15
2022-08-12T06:28:30.470Z,3.17
2022-08-12T06:33:57.762Z,3.10
2022-08-12T06:36:37.252Z,3.35
2022-08-12T06:39:14.630Z,3.33
2022-08-12T06:42:17.738Z,3.40
2022-08-12T06:44:50.396Z,3.80
2022-08-12T06:47:19.728Z,3.33
2022-08-12T06:49:48.483Z,3.38
2022-08-12T06:52:17.212Z,3.05
2022-08-12T06:54:46.805Z,3.30
2022-08-12T06:58:06.487Z,3.17
2022-08-12T07:00:04.053Z,3.72
2022-08-12T07:02:36.765Z,3.30
2022-08-12T07:05:05.468Z,2.80
2022-08-12T07:07:33.714Z,2.88
2022-08-12T07:10:07.542Z,3.25
2022-08-12T07:12:36.766Z,3.15
2022-08-12T07:15:05.260Z,2.72
2022-08-12T07:17:37.579Z,3.05
2022-08-12T07:20:09.975Z,2.70
2022-08-12T07:22:38.951Z,2.88
2022-08-12T07:25:27.330Z,3.45
2022-08-12T07:27:56.012Z,2.88
2022-08-12T07:30:24.420Z,3.25
2022-08-12T07:32:52.948Z,2.90
2022-08-12T07:35:21.509Z,2.72
2022-08-12T07:37:50.540Z,2.85
2022-08-12T07:40:21.161Z,2.10
2022-08-12T07:42:49.715Z,2.47
2022-08-12T07:45:19.441Z,2.45
2022-08-12T07:47:48.224Z,2.40
2022-08-12T07:50:23.387Z,2.10
2022-08-12T07:52:52.087Z,2.25
2022-08-12T07:55:21.734Z,2.28
2022-08-12T07:57:50.842Z,2.00
2022-08-12T08:00:19.301Z,2.10
2022-08-12T08:02:49.214Z,2.30
2022-08-12T08:05:18.584Z,2.10
2022-08-12T08:07:46.779Z,2.00
2022-08-12T08:10:15.057Z,2.35
2022-08-12T08:12:58.035Z,2.03
2022-08-12T08:15:51.361Z,2.08
2022-08-12T08:18:26.540Z,2.42
2022-08-12T08:20:56.083Z,2.40
2022-08-12T08:23:46.447Z,2.05
2022-08-12T08:26:16.396Z,2.10
2022-08-12T08:28:45.994Z,2.50
2022-08-12T08:31:14.912Z,2.40
2022-08-12T08:34:01.466Z,2.20
2022-08-12T08:36:31.369Z,2.30
2022-08-12T08:38:59.540Z,2.40
2022-08-12T08:42:16.493Z,2.33
2022-08-12T08:44:38.222Z,2.05
2022-08-12T08:47:06.892Z,2.22
2022-08-12T08:49:37.090Z,2.40
2022-08-12T08:52:06.041Z,2.67
2022-08-12T08:54:34.385Z,2.35
2022-08-12T08:57:03.051Z,2.38
2022-08-12T08:59:31.441Z,2.20
2022-08-12T09:02:02.439Z,2.25
2022-08-12T09:07:51.135Z,2.20
2022-08-12T09:10:15.506Z,2.10
2022-08-12T09:13:23.089Z,2.08
2022-08-12T09:15:55.987Z,1.90
2022-08-12T09:18:42.215Z,2.03
2022-08-12T09:21:12.584Z,2.17
2022-08-12T09:26:30.993Z,2.00
2022-08-12T09:29:00.739Z,2.08
2022-08-12T09:32:03.429Z,2.47
2022-08-12T09:34:25.860Z,2.13
2022-08-12T09:37:02.349Z,2.00
2022-08-12T09:40:03.518Z,1.88
2022-08-12T09:43:16.165Z,1.75
2022-08-12T09:46:12.008Z,1.98
2022-08-12T09:48:35.157Z,2.00
2022-08-12T09:51:16.654Z,2.15
2022-08-12T09:54:05.970Z,2.10
2022-08-12T09:56:59.902Z,2.42
2022-08-12T10:00:13.154Z,1.80
2022-08-12T10:02:44.333Z,2.17
2022-08-12T10:05:04.548Z,1.90
2022-08-12T10:07:40.316Z,2.03
2022-08-12T10:10:22.994Z,2.10
2022-08-12T10:13:12.147Z,2.10
2022-08-12T10:16:01.741Z,2.00
2022-08-12T10:18:35.347Z,2.00
2022-08-12T10:21:07.295Z,2.42
2022-08-12T10:23:39.902Z,2.30
2022-08-12T10:26:37.400Z,2.40
2022-08-12T10:30:02.055Z,2.20
2022-08-12T10:32:21.184Z,2.13
2022-08-12T10:34:53.437Z,2.20
2022-08-12T10:38:36.261Z,2.20
2022-08-12T10:40:19.199Z,2.05
2022-08-12T10:43:06.168Z,1.90
2022-08-12T10:45:38.109Z,2.10
2022-08-12T10:48:21.906Z,2.42
2022-08-12T10:51:01.870Z,2.20
2022-08-12T10:53:46.039Z,1.95
2022-08-12T10:56:17.095Z,1.80
2022-08-12T10:58:47.236Z,2.40
2022-08-12T11:04:14.815Z,2.00
2022-08-12T11:04:19.203Z,2.13
2022-08-12T11:07:05.632Z,2.20
2022-08-12T11:09:59.803Z,1.93
2022-08-12T11:12:56.034Z,1.70
2022-08-12T11:15:32.693Z,2.20
2022-08-12T11:18:03.295Z,2.00
2022-08-12T11:20:31.789Z,2.10
2022-08-12T11:23:03.644Z,2.17
2022-08-12T11:25:56.572Z,2.10
2022-08-12T11:28:34.050Z,2.00
2022-08-12T11:31:03.727Z,2.10
2022-08-12T11:34:06.678Z,1.93
2022-08-12T11:36:22.079Z,2.00
2022-08-12T11:38:51.436Z,1.80
2022-08-12T11:41:27.969Z,1.87
2022-08-12T11:44:30.647Z,2.13
2022-08-12T11:46:51.430Z,2.00
2022-08-12T11:49:30.775Z,1.90
2022-08-12T11:52:00.938Z,1.67
2022-08-12T11:54:29.858Z,2.10
2022-08-12T11:56:59.408Z,2.20
2022-08-12T12:02:01.093Z,1.80
2022-08-12T12:02:20.593Z,2.03
2022-08-12T12:04:52.517Z,1.67
2022-08-12T12:07:22.426Z,1.80
2022-08-12T12:09:53.049Z,2.03
2022-08-12T12:12:22.594Z,1.93
2022-08-12T12:14:54.086Z,2.00
2022-08-12T12:17:23.398Z,1.70
2022-08-12T12:19:52.928Z,2.30
2022-08-12T12:22:23.462Z,2.17
2022-08-12T12:24:55.492Z,2.00
2022-08-12T12:27:35.741Z,2.20
2022-08-12T12:30:25.599Z,2.30
2022-08-12T12:32:59.384Z,2.60
2022-08-12T12:36:06.326Z,2.27
2022-08-12T12:38:17.578Z,2.40
2022-08-12T12:40:50.174Z,2.20
2022-08-12T12:43:28.447Z,2.27
2022-08-12T12:45:58.927Z,2.40
2022-08-12T12:48:28.413Z,2.10
2022-08-12T12:51:14.843Z,1.87
2022-08-12T12:54:06.784Z,2.23
2022-08-12T12:56:42.263Z,2.23
2022-08-12T12:59:54.625Z,2.00
2022-08-12T13:02:08.056Z,2.13
2022-08-12T13:04:37.645Z,1.93
2022-08-12T13:07:06.587Z,2.00
2022-08-12T13:09:36.339Z,1.70
2022-08-12T13:12:05.294Z,1.83
2022-08-12T13:14:40.115Z,1.50
2022-08-12T13:17:11.199Z,1.93
2022-08-12T13:19:48.249Z,1.90
2022-08-12T13:22:20.098Z,1.73
2022-08-12T13:24:54.641Z,1.73
2022-08-12T13:27:34.453Z,1.80
2022-08-12T13:30:06.742Z,1.90
2022-08-12T13:32:37.266Z,1.70
2022-08-12T13:35:20.116Z,1.67
2022-08-12T13:37:56.209Z,1.63
2022-08-12T13:40:24.935Z,1.67
2022-08-12T13:42:57.408Z,1.60
2022-08-12T13:45:25.672Z,1.67
2022-08-12T13:47:58.659Z,1.73
2022-08-12T13:50:32.472Z,1.90
2022-08-12T13:53:23.340Z,1.50
2022-08-12T13:56:01.575Z,1.77
2022-08-12T13:58:33.130Z,1.67
2022-08-12T14:01:05.860Z,1.70
2022-08-12T14:03:50.287Z,1.57
2022-08-12T14:06:20.039Z,1.70
2022-08-12T14:08:49.602Z,1.60
2022-08-12T14:11:19.243Z,1.70
2022-08-12T14:14:04.101Z,1.30
2022-08-12T14:16:48.849Z,1.63
2022-08-12T14:19:25.581Z,1.50
2022-08-12T14:22:04.669Z,1.73
2022-08-12T14:24:40.035Z,1.47
2022-08-12T14:27:10.492Z,1.60
2022-08-12T14:30:05.351Z,1.27
2022-08-12T14:32:35.251Z,1.53
2022-08-12T14:35:08.957Z,1.73
2022-08-12T14:37:55.318Z,1.70
2022-08-12T14:40:27.785Z,1.50
2022-08-12T14:42:57.210Z,1.57
2022-08-12T14:45:45.134Z,1.50
2022-08-12T14:48:15.159Z,1.90
2022-08-12T14:52:15.900Z,1.63
2022-08-12T14:59:57.379Z,1.53
2022-08-12T15:02:28.447Z,1.70
2022-08-12T15:04:59.201Z,1.67
2022-08-12T15:07:33.626Z,1.90
2022-08-12T15:10:13.340Z,1.70
2022-08-12T15:12:42.075Z,1.50
2022-08-12T15:15:11.306Z,1.60
2022-08-12T15:17:39.796Z,1.60
2022-08-12T15:20:31.611Z,1.70
2022-08-12T15:22:59.915Z,1.60
2022-08-12T15:25:28.724Z,1.80
2022-08-12T15:28:03.765Z,1.60
2022-08-12T15:30:47.929Z,1.20
2022-08-12T15:33:18.851Z,1.77
2022-08-12T15:35:52.115Z,1.87
2022-08-12T15:38:24.863Z,1.70
2022-08-12T15:40:53.812Z,1.87
2022-08-12T15:43:51.993Z,1.53
2022-08-12T15:46:15.650Z,1.77
2022-08-12T15:48:46.423Z,1.70
2022-08-12T15:51:59.570Z,1.30
2022-08-12T15:54:33.427Z,1.63
2022-08-12T15:57:05.306Z,1.80
2022-08-12T16:00:00.563Z,1.50
2022-08-12T16:02:21.847Z,1.80
2022-08-12T16:04:51.404Z,1.80
2022-08-12T16:07:26.217Z,1.97
2022-08-12T16:10:04.834Z,1.63
2022-08-12T16:12:34.706Z,2.63
2022-08-12T16:15:02.995Z,2.27
2022-08-12T16:18:19.616Z,2.50
2022-08-12T16:20:22.069Z,3.10
2022-08-12T16:23:04.209Z,2.07
2022-08-12T16:26:05.742Z,1.90
2022-08-12T16:28:35.162Z,2.60
2022-08-12T16:31:03.583Z,2.20
2022-08-12T16:33:36.004Z,2.30
2022-08-12T16:36:25.526Z,1.83
2022-08-12T16:38:54.055Z,2.03
2022-08-12T16:41:25.559Z,2.10
2022-08-12T16:43:56.485Z,2.00
2022-08-12T16:46:33.534Z,1.60
2022-08-12T16:49:08.619Z,2.00
2022-08-12T16:51:45.863Z,2.03
2022-08-12T16:54:16.467Z,2.53
2022-08-12T16:56:50.934Z,3.00
2022-08-12T16:59:52.772Z,1.90
2022-08-12T17:02:31.270Z,1.67
2022-08-12T17:05:03.778Z,2.87
2022-08-12T17:07:36.135Z,2.30
2022-08-12T17:10:06.609Z,1.97
2022-08-12T17:12:37.743Z,2.23
2022-08-12T17:15:21.449Z,2.20
2022-08-12T17:18:39.222Z,3.07
2022-08-12T17:20:46.717Z,1.70
2022-08-12T17:23:16.601Z,1.70
2022-08-12T17:25:45.752Z,1.97
2022-08-12T17:28:18.667Z,1.90
2022-08-12T17:30:57.369Z,2.63
2022-08-12T17:33:33.739Z,3.80
2022-08-12T17:36:05.710Z,2.00
2022-08-12T17:38:34.823Z,1.63
2022-08-12T17:41:22.589Z,2.00
2022-08-12T17:43:58.526Z,1.90
2022-08-12T17:46:33.576Z,1.63
2022-08-12T17:49:18.885Z,1.70
2022-08-12T17:52:02.891Z,1.60
2022-08-12T17:54:32.765Z,1.90
2022-08-12T17:57:01.464Z,1.87
2022-08-12T17:59:47.885Z,1.70
2022-08-12T18:02:25.538Z,2.00
2022-08-12T18:05:04.483Z,2.10
2022-08-12T18:07:35.648Z,1.70
2022-08-12T18:10:04.795Z,1.90
2022-08-12T18:12:38.564Z,1.93
2022-08-12T18:15:11.399Z,1.80
2022-08-12T18:17:59.878Z,1.70
2022-08-12T18:20:29.053Z,1.97
2022-08-12T18:22:59.536Z,1.87
2022-08-12T18:26:13.983Z,1.80
2022-08-12T18:28:31.604Z,2.10
2022-08-12T18:31:03.451Z,1.70
2022-08-12T18:33:44.009Z,2.00
2022-08-12T18:36:14.575Z,1.83
2022-08-12T18:38:55.757Z,1.90
2022-08-12T18:41:33.763Z,2.10
2022-08-12T18:44:04.585Z,2.10
2022-08-12T18:46:54.525Z,1.87
2022-08-12T18:49:30.391Z,2.10
2022-08-12T18:52:04.283Z,2.20
2022-08-12T18:54:35.689Z,1.80
2022-08-12T18:57:16.151Z,2.07
2022-08-12T19:00:02.576Z,2.30
2022-08-12T19:02:39.950Z,2.20
2022-08-12T19:05:10.770Z,2.30
2022-08-12T19:07:49.878Z,2.60
2022-08-12T19:10:29.844Z,2.30
2022-08-12T19:13:21.076Z,2.40
2022-08-12T19:15:53.282Z,2.17
2022-08-12T19:18:29.280Z,2.23
2022-08-12T19:20:58.821Z,2.20
2022-08-12T19:23:35.417Z,2.80
2022-08-12T19:26:03.286Z,2.20
2022-08-12T19:28:34.521Z,2.47
2022-08-12T19:31:56.005Z,2.47
2022-08-12T19:34:50.477Z,2.40
2022-08-12T19:37:17.054Z,2.40
2022-08-12T19:40:09.950Z,2.40
2022-08-12T19:42:33.743Z,2.27
2022-08-12T19:45:04.818Z,2.27
2022-08-12T19:47:38.943Z,2.40
2022-08-12T19:50:11.253Z,2.80
2022-08-12T19:52:41.481Z,2.77
2022-08-12T19:55:19.909Z,2.80
2022-08-12T19:58:02.908Z,2.97
2022-08-12T20:00:31.959Z,2.70
2022-08-12T20:03:04.217Z,2.60
2022-08-12T20:06:05.215Z,2.37
2022-08-12T20:08:29.388Z,2.93
2022-08-12T20:12:13.087Z,2.80
2022-08-12T20:14:00.241Z,2.70
2022-08-12T20:16:51.729Z,2.63
2022-08-12T20:19:17.515Z,2.40
2022-08-12T20:21:47.255Z,2.47
2022-08-12T20:24:15.564Z,2.57
2022-08-12T20:26:44.176Z,2.40
2022-08-12T20:29:16.327Z,2.47
2022-08-12T20:31:45.255Z,2.17
2022-08-12T20:34:13.511Z,1.97
2022-08-12T20:36:44.266Z,2.50
2022-08-12T20:39:33.954Z,2.27
2022-08-12T20:42:07.233Z,2.20
2022-08-12T20:44:40.022Z,2.20
2022-08-12T20:47:18.153Z,2.37
2022-08-12T20:49:55.454Z,2.20
2022-08-12T20:52:29.060Z,2.30
2022-08-12T20:54:59.892Z,2.13
2022-08-12T20:57:38.033Z,2.27
2022-08-12T21:00:16.499Z,2.10
2022-08-12T21:02:50.103Z,2.20
2022-08-12T21:06:09.838Z,2.13
2022-08-12T21:08:26.353Z,2.00
2022-08-12T21:10:59.154Z,1.93
2022-08-12T21:13:29.349Z,2.23
2022-08-12T21:16:01.120Z,2.00
2022-08-12T21:18:31.716Z,2.10
2022-08-12T21:21:00.116Z,2.20
2022-08-12T21:23:31.123Z,2.20
2022-08-12T21:26:12.399Z,2.50
2022-08-12T21:28:58.228Z,2.50
2022-08-12T21:32:36.055Z,2.67
2022-08-12T21:34:17.824Z,2.47
2022-08-12T21:36:49.324Z,2.20
2022-08-12T21:39:21.415Z,2.30
2022-08-12T21:41:52.467Z,2.30
2022-08-12T21:44:24.471Z,2.17
2022-08-12T21:47:19.604Z,2.50
2022-08-12T21:49:54.753Z,2.27
2022-08-12T21:52:28.209Z,2.40
2022-08-12T21:55:02.677Z,2.40
2022-08-12T21:57:36.093Z,2.10
2022-08-12T22:00:19.674Z,2.20
2022-08-12T22:03:05.620Z,2.10
2022-08-12T22:05:53.773Z,2.10
2022-08-12T22:08:26.132Z,2.00
2022-08-12T22:10:56.383Z,1.90
2022-08-12T22:14:04.121Z,1.93
2022-08-12T22:16:15.506Z,2.23
2022-08-12T22:18:50.262Z,1.90
2022-08-12T22:21:22.046Z,1.80
2022-08-12T22:24:04.010Z,2.20
2022-08-12T22:26:37.858Z,2.00
2022-08-12T22:29:27.485Z,2.03
2022-08-12T22:31:56.240Z,2.00
2022-08-12T22:34:33.353Z,2.27
2022-08-12T22:37:02.442Z,2.00
2022-08-12T22:39:31.675Z,1.83
2022-08-12T22:42:19.902Z,1.87
2022-08-12T22:45:16.161Z,1.63
2022-08-12T22:47:54.160Z,2.20
2022-08-12T22:50:27.261Z,1.70
2022-08-12T22:53:14.593Z,2.10
2022-08-12T22:56:06.109Z,2.00
2022-08-12T22:58:33.268Z,1.80
2022-08-12T23:01:03.660Z,2.00
2022-08-12T23:03:48.150Z,2.10
2022-08-12T23:06:19.691Z,2.00
2022-08-12T23:08:48.352Z,1.97
2022-08-12T23:11:17.139Z,2.20
2022-08-12T23:13:55.413Z,2.03
2022-08-12T23:16:29.011Z,1.90
2022-08-12T23:19:01.672Z,2.13
2022-08-12T23:21:40.240Z,1.80
2022-08-12T23:24:27.429Z,2.00
2022-08-12T23:27:13.437Z,1.90
2022-08-12T23:29:43.307Z,2.00
2022-08-12T23:32:35.589Z,1.93
2022-08-12T23:35:06.720Z,2.00
2022-08-12T23:37:47.473Z,1.70
2022-08-12T23:40:22.083Z,2.10
2022-08-12T23:42:50.969Z,1.93
2022-08-12T23:45:20.681Z,1.83
2022-08-12T23:48:01.839Z,1.73
2022-08-12T23:50:34.274Z,2.10
2022-08-12T23:53:05.730Z,2.00
2022-08-12T23:55:35.862Z,1.97
2022-08-12T23:58:22.620Z,1.83
